createdAt,value
2022-09-28T00:03:49.544Z,11.52
2022-09-28T00:08:05.525Z,11.50
2022-09-28T00:12:21.915Z,11.74
2022-09-28T00:16:42.225Z,11.28
2022-09-28T00:21:10.206Z,11.59
2022-09-28T00:25:26.417Z,11.83
2022-09-28T00:29:42.463Z,11.72
2022-09-28T00:33:58.696Z,11.71
2022-09-28T00:38:16.882Z,11.92
2022-09-28T00:42:32.903Z,11.52
2022-09-28T00:46:49.955Z,11.56
2022-09-28T00:51:09.344Z,11.60
2022-09-28T00:55:40.563Z,11.61
2022-09-28T00:59:56.975Z,11.42
2022-09-28T01:04:12.991Z,10.95
2022-09-28T01:08:30.475Z,11.13
2022-09-28T01:12:46.492Z,10.81
2022-09-28T01:17:11.735Z,11.18
2022-09-28T01:21:27.857Z,10.57
2022-09-28T01:25:50.892Z,10.86
2022-09-28T01:30:18.146Z,10.69
2022-09-28T01:34:48.952Z,10.67
2022-09-28T01:39:24.602Z,10.73
2022-09-28T01:43:45.558Z,10.66
2022-09-28T01:48:05.055Z,10.64
2022-09-28T01:52:28.781Z,10.48
2022-09-28T01:56:49.542Z,10.18
2022-09-28T02:01:23.781Z,10.31
2022-09-28T02:05:49.314Z,10.32
2022-09-28T02:10:11.027Z,10.56
2022-09-28T02:14:28.907Z,10.53
2022-09-28T02:18:45.543Z,10.57
2022-09-28T02:23:02.939Z,10.62
2022-09-28T02:27:40.235Z,10.31
2022-09-28T02:31:56.269Z,11.00
2022-09-28T02:36:12.416Z,11.10
2022-09-28T02:40:34.855Z,11.16
2022-09-28T02:45:12.685Z,11.17
2022-09-28T02:49:35.015Z,11.18
2022-09-28T02:54:17.973Z,11.34
2022-09-28T02:58:43.535Z,11.12
2022-09-28T03:03:08.755Z,10.58
2022-09-28T03:07:47.328Z,10.38
2022-09-28T03:12:10.785Z,10.73
2022-09-28T03:16:27.682Z,10.53
2022-09-28T03:20:43.681Z,10.68
2022-09-28T03:24:59.637Z,10.43
2022-09-28T03:29:15.827Z,10.61
2022-09-28T03:33:32.381Z,10.34
2022-09-28T03:37:48.355Z,10.61
2022-09-28T03:42:04.422Z,10.51
2022-09-28T03:46:20.472Z,10.39
2022-09-28T03:50:36.580Z,10.38
2022-09-28T03:54:52.549Z,10.58
2022-09-28T03:59:08.609Z,10.80
2022-09-28T04:03:24.576Z,10.70
2022-09-28T04:07:40.619Z,10.80
2022-09-28T04:12:03.802Z,11.02
2022-09-28T04:16:20.471Z,11.02
2022-09-28T04:20:36.597Z,11.04
2022-09-28T04:24:52.567Z,11.02
2022-09-28T04:29:16.928Z,11.03
2022-09-28T04:33:33.653Z,11.13
2022-09-28T04:37:49.771Z,11.08
2022-09-28T04:42:05.809Z,10.97
2022-09-28T04:46:21.847Z,11.24
2022-09-28T04:50:37.896Z,10.98
2022-09-28T04:54:53.869Z,10.98
2022-09-28T04:59:10.268Z,10.94
2022-09-28T05:03:26.367Z,10.79
2022-09-28T05:07:42.279Z,10.55
2022-09-28T05:11:58.432Z,10.66
2022-09-28T05:16:16.344Z,11.01
2022-09-28T05:20:32.636Z,10.91
2022-09-28T05:24:48.686Z,10.52
2022-09-28T05:29:04.743Z,10.68
2022-09-28T05:33:21.042Z,10.90
2022-09-28T05:37:37.547Z,10.68
2022-09-28T05:41:54.755Z,10.43
2022-09-28T05:46:10.867Z,10.39
2022-09-28T05:50:27.005Z,10.83
2022-09-28T05:54:43.075Z,11.21
2022-09-28T05:58:59.266Z,11.14
2022-09-28T06:03:15.628Z,11.09
2022-09-28T06:07:31.688Z,11.60
2022-09-28T06:11:48.447Z,11.58
2022-09-28T06:16:05.104Z,11.73
2022-09-28T06:20:21.091Z,11.92
2022-09-28T06:24:37.040Z,11.70
2022-09-28T06:28:53.070Z,11.94
2022-09-28T06:33:13.333Z,12.19
2022-09-28T06:37:29.402Z,12.46
2022-09-28T06:41:45.581Z,12.65
2022-09-28T06:46:02.506Z,13.12
2022-09-28T06:50:19.481Z,13.12
2022-09-28T06:54:35.450Z,13.22
2022-09-28T06:58:51.466Z,13.48
2022-09-28T07:03:12.850Z,13.90
2022-09-28T07:07:28.845Z,13.76
2022-09-28T07:11:44.929Z,13.96
2022-09-28T07:16:01.853Z,14.03
2022-09-28T07:20:19.548Z,14.44
2022-09-28T07:24:35.850Z,14.61
2022-09-28T07:28:52.190Z,14.71
2022-09-28T07:33:09.834Z,14.69
2022-09-28T07:37:26.646Z,15.07
2022-09-28T07:41:43.273Z,15.45
2022-09-28T07:45:59.405Z,15.55
2022-09-28T07:50:15.533Z,15.49
2022-09-28T07:54:31.760Z,15.07
2022-09-28T07:58:48.814Z,15.66
2022-09-28T08:03:04.819Z,15.66
2022-09-28T08:07:24.188Z,16.02
2022-09-28T08:11:41.632Z,15.86
2022-09-28T08:16:02.029Z,15.75
2022-09-28T08:20:36.796Z,15.69
2022-09-28T08:24:52.931Z,15.90
2022-09-28T08:29:09.267Z,16.65
2022-09-28T08:33:25.342Z,16.60
2022-09-28T08:37:41.963Z,16.77
2022-09-28T08:42:32.602Z,16.78
2022-09-28T08:46:53.810Z,16.98
2022-09-28T08:51:27.592Z,16.88
2022-09-28T08:55:45.363Z,17.44
2022-09-28T09:00:02.678Z,17.64
2022-09-28T09:04:18.766Z,17.94
2022-09-28T09:09:01.086Z,18.39
2022-09-28T09:13:31.637Z,18.43
2022-09-28T09:18:03.264Z,19.07
2022-09-28T09:22:29.239Z,19.14
2022-09-28T09:26:45.830Z,18.70
2022-09-28T09:31:22.743Z,18.41
2022-09-28T09:35:55.924Z,16.63
2022-09-28T09:40:33.513Z,16.37
2022-09-28T09:45:13.533Z,16.41
2022-09-28T09:49:36.274Z,16.64
2022-09-28T09:54:06.767Z,16.48
2022-09-28T09:58:46.274Z,17.03
2022-09-28T10:03:03.170Z,17.11
2022-09-28T10:07:25.474Z,18.14
2022-09-28T10:11:46.772Z,18.24
2022-09-28T10:16:03.167Z,17.68
2022-09-28T10:20:19.951Z,17.61
2022-09-28T10:24:45.368Z,18.51
2022-09-28T10:29:04.725Z,18.33
2022-09-28T10:33:34.388Z,19.11
2022-09-28T10:38:03.451Z,19.20
2022-09-28T10:42:22.763Z,18.20
2022-09-28T10:46:39.706Z,18.49
2022-09-28T10:51:06.209Z,19.01
2022-09-28T10:55:23.434Z,18.82
2022-09-28T10:59:43.130Z,18.60
2022-09-28T11:04:04.890Z,19.77
2022-09-28T11:08:28.507Z,20.10
2022-09-28T11:12:45.573Z,20.59
2022-09-28T11:17:18.111Z,20.14
2022-09-28T11:21:46.148Z,20.94
2022-09-28T11:26:09.469Z,21.24
2022-09-28T11:30:38.829Z,21.33
2022-09-28T11:34:59.458Z,20.74
2022-09-28T11:39:27.379Z,20.68
2022-09-28T11:43:52.418Z,19.92
2022-09-28T11:48:17.824Z,20.12
2022-09-28T11:52:53.792Z,20.55
2022-09-28T11:57:16.954Z,20.72
2022-09-28T12:01:47.575Z,20.19
2022-09-28T12:06:11.838Z,20.36
2022-09-28T12:10:34.153Z,19.70
2022-09-28T12:14:53.279Z,20.91
2022-09-28T12:19:21.889Z,20.93
2022-09-28T12:23:40.580Z,20.39
2022-09-28T12:28:07.266Z,20.00
2022-09-28T12:32:41.443Z,20.56
2022-09-28T12:37:13.146Z,20.61
2022-09-28T12:41:57.742Z,20.69
2022-09-28T12:46:46.147Z,20.30
2022-09-28T12:51:14.986Z,21.53
2022-09-28T12:55:50.150Z,21.48
2022-09-28T13:00:10.380Z,21.27
2022-09-28T13:04:38.040Z,21.80
2022-09-28T13:08:56.997Z,21.92
2022-09-28T13:13:45.058Z,21.81
2022-09-28T13:18:23.013Z,21.70
2022-09-28T13:22:46.051Z,21.17
2022-09-28T13:27:15.035Z,21.73
2022-09-28T13:31:35.977Z,22.10
2022-09-28T13:35:54.343Z,21.29
2022-09-28T13:40:10.575Z,20.52
2022-09-28T13:45:09.696Z,19.69
2022-09-28T13:49:51.433Z,19.70
2022-09-28T13:54:41.494Z,18.81
2022-09-28T13:59:32.399Z,18.74
2022-09-28T14:04:10.538Z,19.10
2022-09-28T14:08:55.648Z,19.47
2022-09-28T14:13:12.318Z,19.79
2022-09-28T14:17:28.448Z,19.97
2022-09-28T14:22:06.658Z,20.60
2022-09-28T14:26:25.399Z,20.83
2022-09-28T14:30:53.420Z,20.87
2022-09-28T14:35:52.734Z,20.61
2022-09-28T14:40:38.858Z,20.02
2022-09-28T14:45:06.751Z,19.94
2022-09-28T14:49:43.656Z,19.69
2022-09-28T14:54:48.216Z,19.43
2022-09-28T14:59:06.302Z,19.13
2022-09-28T15:03:23.343Z,18.89
2022-09-28T15:07:48.294Z,18.56
2022-09-28T15:12:12.290Z,18.32
2022-09-28T15:16:30.578Z,18.38
2022-09-28T15:20:50.643Z,18.58
2022-09-28T15:25:20.212Z,18.74
2022-09-28T15:29:36.285Z,18.70
2022-09-28T15:34:11.011Z,18.30
2022-09-28T15:38:27.251Z,18.69
2022-09-28T15:42:45.334Z,17.97
2022-09-28T15:47:08.650Z,17.98
2022-09-28T15:51:24.863Z,18.11
2022-09-28T15:55:44.305Z,18.16
2022-09-28T16:00:00.897Z,18.12
2022-09-28T16:04:42.086Z,18.05
2022-09-28T16:08:58.209Z,17.90
2022-09-28T16:13:21.235Z,17.92
2022-09-28T16:17:38.125Z,18.03
2022-09-28T16:21:59.538Z,17.51
2022-09-28T16:26:28.541Z,17.50
2022-09-28T16:31:02.057Z,17.77
2022-09-28T16:35:25.752Z,17.85
2022-09-28T16:39:41.782Z,17.71
2022-09-28T16:44:01.164Z,17.96
2022-09-28T16:48:19.532Z,17.90
2022-09-28T16:52:59.233Z,17.64
2022-09-28T16:57:16.483Z,17.93
2022-09-28T17:01:33.092Z,17.71
2022-09-28T17:05:49.918Z,17.53
2022-09-28T17:10:45.058Z,17.95
2022-09-28T17:15:09.872Z,17.80
2022-09-28T17:19:29.633Z,17.67
2022-09-28T17:23:46.999Z,17.52
2022-09-28T17:28:03.724Z,17.66
2022-09-28T17:32:19.989Z,17.46
2022-09-28T17:36:36.396Z,17.60
2022-09-28T17:40:52.582Z,17.43
2022-09-28T17:45:08.939Z,17.76
2022-09-28T17:49:26.192Z,17.83
2022-09-28T17:53:42.959Z,17.84
2022-09-28T17:58:01.416Z,17.68
2022-09-28T18:02:17.500Z,17.81
2022-09-28T18:06:34.011Z,17.84
2022-09-28T18:10:50.958Z,17.66
2022-09-28T18:15:07.491Z,17.31
2022-09-28T18:19:27.499Z,17.69
2022-09-28T18:23:47.415Z,17.51
2022-09-28T18:28:04.363Z,17.62
2022-09-28T18:32:21.188Z,17.73
2022-09-28T18:36:37.365Z,17.34
2022-09-28T18:40:54.997Z,17.51
2022-09-28T18:45:12.172Z,17.76
2022-09-28T18:49:29.692Z,17.08
2022-09-28T18:53:45.830Z,16.98
2022-09-28T18:58:02.334Z,16.84
2022-09-28T19:02:18.625Z,16.42
2022-09-28T19:06:39.112Z,17.06
2022-09-28T19:11:17.827Z,17.07
2022-09-28T19:15:34.817Z,16.92
2022-09-28T19:19:51.799Z,17.14
2022-09-28T19:24:10.051Z,16.86
2022-09-28T19:28:28.080Z,16.36
2022-09-28T19:32:44.227Z,16.53
2022-09-28T19:37:05.769Z,16.95
2022-09-28T19:41:43.975Z,16.63
2022-09-28T19:46:05.094Z,16.62
2022-09-28T19:50:21.196Z,16.70
2022-09-28T19:54:38.258Z,16.53
2022-09-28T19:58:54.451Z,16.33
2022-09-28T20:03:10.505Z,16.62
2022-09-28T20:07:26.534Z,16.41
2022-09-28T20:11:42.813Z,16.34
2022-09-28T20:16:10.844Z,16.31
2022-09-28T20:20:27.028Z,16.45
2022-09-28T20:24:43.052Z,16.28
2022-09-28T20:28:58.992Z,15.73
2022-09-28T20:33:22.856Z,15.73
2022-09-28T20:37:44.936Z,16.13
2022-09-28T20:42:00.868Z,15.96
2022-09-28T20:46:18.947Z,16.03
2022-09-28T20:50:35.240Z,15.76
2022-09-28T20:54:51.276Z,16.04
2022-09-28T20:59:13.853Z,16.04
2022-09-28T21:03:29.922Z,15.90
2022-09-28T21:07:45.881Z,15.58
2022-09-28T21:12:02.478Z,15.80
2022-09-28T21:16:18.555Z,16.06
2022-09-28T21:20:34.535Z,15.66
2022-09-28T21:24:50.612Z,15.65
2022-09-28T21:29:10.792Z,15.54
2022-09-28T21:33:26.791Z,15.54
2022-09-28T21:37:42.787Z,15.22
2022-09-28T21:41:58.758Z,15.36
2022-09-28T21:46:14.734Z,15.35
2022-09-28T21:50:31.097Z,15.29
2022-09-28T21:54:47.069Z,15.26
2022-09-28T21:59:03.092Z,15.25
2022-09-28T22:03:19.114Z,15.24
2022-09-28T22:07:35.174Z,15.24
2022-09-28T22:11:51.443Z,15.09
2022-09-28T22:16:08.346Z,15.01
2022-09-28T22:20:24.391Z,15.13
2022-09-28T22:24:40.366Z,15.12
2022-09-28T22:29:01.192Z,14.84
2022-09-28T22:33:17.309Z,14.83
2022-09-28T22:37:33.656Z,14.88
2022-09-28T22:41:49.611Z,14.97
2022-09-28T22:46:11.586Z,14.85
2022-09-28T22:50:27.643Z,14.81
2022-09-28T22:54:43.783Z,15.06
2022-09-28T22:59:00.207Z,15.03
2022-09-28T23:03:16.419Z,14.96
2022-09-28T23:07:33.285Z,15.00
2022-09-28T23:11:50.297Z,15.17
2022-09-28T23:16:08.303Z,15.01
2022-09-28T23:20:24.840Z,15.09
2022-09-28T23:24:40.926Z,15.02
2022-09-28T23:28:57.384Z,15.05
2022-09-28T23:33:17.881Z,14.98
2022-09-28T23:37:34.123Z,15.00
2022-09-28T23:41:50.639Z,15.15
2022-09-28T23:46:06.836Z,15.17
2022-09-28T23:50:23.827Z,15.11
2022-09-28T23:54:39.921Z,15.03
2022-09-28T23:58:55.885Z,15.22
